Terminal Aerodrome Forecast
Issued by NWS

Home | Current Version | Previous Version | Graphics & Text | Print | Product List | Glossary On
Versions: 1 2 3 4 5 6 7 8 9 10 11 12 13 14 15 16 17 18 19 20 21 22 23 24 25 26 27 28 29 30 31 32 33 34 35 36
000
FTUS43 KLOT 220857 AAB
TAFORD
TAF AMD
KORD 220857Z 2209/2312 VRB02KT 1/2SM FG SCT003 OVC007
      TEMPO 2209/2211 1/4SM FG VV003
     FM221100 VRB02KT 1/4SM FG VV003
     FM221600 03006KT 3SM BR OVC006
     FM221900 01009KT P6SM OVC015=

USA.gov is the U.S. government's official web portal to all federal, state and local government web resources and services.